createdAt,value
2018-02-27T00:02:10.583Z,22.57
2018-02-27T00:04:38.090Z,21.83
2018-02-27T00:07:07.376Z,21.13
2018-02-27T00:09:34.909Z,20.13
2018-02-27T00:12:02.403Z,19.30
2018-02-27T00:14:29.877Z,21.07
2018-02-27T00:16:57.399Z,22.10
2018-02-27T00:19:24.894Z,22.97
2018-02-27T00:21:52.501Z,20.77
2018-02-27T00:24:19.985Z,23.87
2018-02-27T00:26:47.465Z,21.13
2018-02-27T00:29:14.969Z,20.40
2018-02-27T00:31:42.529Z,22.43
2018-02-27T00:34:09.988Z,28.87
2018-02-27T00:36:37.557Z,22.60
2018-02-27T00:39:05.079Z,25.07
2018-02-27T00:41:32.567Z,21.67
2018-02-27T00:44:05.053Z,17.47
2018-02-27T00:46:32.571Z,20.10
2018-02-27T00:49:00.033Z,19.87
2018-02-27T00:51:27.507Z,22.57
2018-02-27T00:53:55.855Z,22.03
2018-02-27T00:56:23.316Z,20.17
2018-02-27T00:58:51.485Z,19.97
2018-02-27T01:01:18.966Z,21.87
2018-02-27T01:03:46.464Z,18.63
2018-02-27T01:06:13.949Z,20.43
2018-02-27T01:08:41.423Z,21.27
2018-02-27T01:11:08.960Z,21.90
2018-02-27T01:13:36.441Z,20.97
2018-02-27T01:16:03.989Z,19.93
2018-02-27T01:18:31.433Z,21.03
2018-02-27T01:20:58.889Z,21.30
2018-02-27T01:23:26.348Z,19.10
2018-02-27T01:25:53.849Z,19.57
2018-02-27T01:28:21.331Z,18.97
2018-02-27T01:30:48.818Z,22.70
2018-02-27T01:33:16.311Z,23.63
2018-02-27T01:35:43.829Z,18.63
2018-02-27T01:38:11.333Z,23.77
2018-02-27T01:40:39.023Z,20.23
2018-02-27T01:43:06.518Z,23.10
2018-02-27T01:45:34.017Z,21.13
2018-02-27T01:48:01.495Z,17.27
2018-02-27T01:50:29.025Z,19.47
2018-02-27T01:52:56.623Z,17.33
2018-02-27T01:55:24.097Z,18.93
2018-02-27T01:57:51.641Z,18.33
2018-02-27T02:00:19.119Z,23.73
2018-02-27T02:02:46.637Z,18.20
2018-02-27T02:05:14.115Z,20.60
2018-02-27T02:07:41.680Z,24.00
2018-02-27T02:10:09.163Z,21.07
2018-02-27T02:12:36.644Z,21.17
2018-02-27T02:15:04.099Z,24.20
2018-02-27T02:17:31.643Z,22.77
2018-02-27T02:19:59.083Z,22.93
2018-02-27T02:22:26.654Z,19.40
2018-02-27T02:24:54.112Z,19.57
2018-02-27T02:27:21.595Z,18.80
2018-02-27T02:29:49.148Z,21.83
2018-02-27T02:32:16.686Z,20.67
2018-02-27T02:34:44.183Z,20.77
2018-02-27T02:37:11.676Z,22.40
2018-02-27T02:39:39.157Z,19.47
2018-02-27T02:42:24.452Z,20.50
2018-02-27T02:44:52.918Z,19.07
2018-02-27T02:47:20.370Z,24.53
2018-02-27T02:49:47.829Z,22.23
2018-02-27T02:52:15.305Z,21.33
2018-02-27T02:54:42.832Z,17.07
2018-02-27T02:57:10.343Z,20.43
2018-02-27T02:59:37.898Z,26.00
2018-02-27T03:02:05.374Z,24.00
2018-02-27T03:04:32.858Z,23.50
2018-02-27T03:07:00.327Z,22.73
2018-02-27T03:09:27.842Z,19.93
2018-02-27T03:11:55.346Z,21.73
2018-02-27T03:14:22.817Z,23.40
2018-02-27T03:16:50.294Z,21.73
2018-02-27T03:19:17.818Z,17.70
2018-02-27T03:21:45.292Z,23.77
2018-02-27T03:24:12.756Z,18.73
2018-02-27T03:26:40.474Z,20.17
2018-02-27T03:29:07.982Z,23.07
2018-02-27T03:31:35.469Z,21.57
2018-02-27T03:34:02.948Z,18.30
2018-02-27T03:36:30.501Z,22.93
2018-02-27T03:38:57.954Z,17.60
2018-02-27T03:41:25.450Z,22.43
2018-02-27T03:43:52.915Z,21.23
2018-02-27T03:46:20.373Z,19.97
2018-02-27T03:48:47.938Z,22.50
2018-02-27T03:51:15.417Z,22.97
2018-02-27T03:53:42.856Z,22.27
2018-02-27T03:56:10.365Z,22.67
2018-02-27T03:58:37.820Z,21.97
2018-02-27T04:01:05.321Z,20.17
2018-02-27T04:03:32.788Z,20.57
2018-02-27T04:06:00.235Z,21.50
2018-02-27T04:08:27.723Z,19.27
2018-02-27T04:10:55.226Z,18.67
2018-02-27T04:13:22.839Z,21.90
2018-02-27T04:15:50.328Z,23.33
2018-02-27T04:18:17.804Z,20.03
2018-02-27T04:20:52.114Z,19.33
2018-02-27T04:23:19.624Z,19.93
2018-02-27T04:25:47.088Z,22.70
2018-02-27T04:28:14.552Z,24.57
2018-02-27T04:30:42.042Z,22.60
2018-02-27T04:33:09.512Z,28.47
2018-02-27T04:35:36.960Z,23.40
2018-02-27T04:38:04.460Z,24.23
2018-02-27T04:40:31.932Z,23.83
2018-02-27T04:42:59.378Z,22.27
2018-02-27T04:45:26.880Z,22.03
2018-02-27T04:47:54.472Z,23.97
2018-02-27T04:50:21.951Z,20.63
2018-02-27T04:52:49.432Z,17.33
2018-02-27T04:55:16.926Z,23.03
2018-02-27T04:57:44.433Z,23.10
2018-02-27T05:00:11.894Z,24.37
2018-02-27T05:02:39.394Z,19.60
2018-02-27T05:05:06.970Z,25.03
2018-02-27T05:07:34.448Z,21.53
2018-02-27T05:10:01.913Z,20.77
2018-02-27T05:12:29.416Z,23.13
2018-02-27T05:14:56.889Z,25.00
2018-02-27T05:17:24.384Z,29.40
2018-02-27T05:19:51.870Z,24.23
2018-02-27T05:22:19.352Z,25.43
2018-02-27T05:24:46.848Z,25.10
2018-02-27T05:27:14.373Z,23.70
2018-02-27T05:29:41.873Z,24.33
2018-02-27T05:32:09.346Z,24.20
2018-02-27T05:34:36.950Z,24.33
2018-02-27T05:37:04.495Z,21.70
2018-02-27T05:39:31.970Z,25.10
2018-02-27T05:41:59.451Z,24.13
2018-02-27T05:44:27.860Z,25.70
2018-02-27T05:46:55.493Z,24.93
2018-02-27T05:49:23.022Z,22.00
2018-02-27T05:51:50.585Z,24.80
2018-02-27T05:54:18.082Z,24.20
2018-02-27T05:56:45.589Z,25.33
2018-02-27T05:59:14.884Z,24.20
2018-02-27T06:01:42.372Z,25.80
2018-02-27T06:04:09.878Z,24.53
2018-02-27T06:06:37.360Z,25.73
2018-02-27T06:09:04.874Z,27.97
2018-02-27T06:11:32.382Z,28.33
2018-02-27T06:13:59.853Z,29.60
2018-02-27T06:16:27.328Z,28.00
2018-02-27T06:18:54.802Z,25.30
2018-02-27T06:21:22.345Z,24.03
2018-02-27T06:23:49.908Z,27.37
2018-02-27T06:26:17.379Z,28.33
2018-02-27T06:28:44.849Z,37.37
2018-02-27T06:31:12.363Z,47.83
2018-02-27T06:33:39.862Z,44.23
2018-02-27T06:36:07.356Z,37.77
2018-02-27T06:38:34.842Z,48.53
2018-02-27T06:41:02.348Z,36.97
2018-02-27T06:43:29.844Z,34.63
2018-02-27T06:45:57.350Z,33.90
2018-02-27T06:48:24.866Z,34.20
2018-02-27T06:50:52.366Z,28.30
2018-02-27T06:53:20.033Z,30.90
2018-02-27T06:55:47.544Z,31.50
2018-02-27T06:58:15.012Z,37.67
2018-02-27T07:00:42.479Z,32.70
2018-02-27T07:03:09.987Z,33.13
2018-02-27T07:05:37.560Z,29.30
2018-02-27T07:08:05.055Z,34.27
2018-02-27T07:10:32.509Z,35.80
2018-02-27T07:12:59.986Z,35.87
2018-02-27T07:15:27.473Z,35.37
2018-02-27T07:17:54.965Z,30.50
2018-02-27T07:20:22.536Z,28.70
2018-02-27T07:22:50.037Z,30.13
2018-02-27T07:25:17.544Z,31.23
2018-02-27T07:27:45.046Z,27.77
2018-02-27T07:30:12.510Z,36.73
2018-02-27T07:32:39.980Z,29.90
2018-02-27T07:35:07.487Z,34.87
2018-02-27T07:37:34.964Z,38.27
2018-02-27T07:40:02.594Z,26.03
2018-02-27T07:42:30.162Z,29.57
2018-02-27T07:44:57.745Z,31.67
2018-02-27T07:47:25.316Z,31.80
2018-02-27T07:49:52.792Z,38.50
2018-02-27T07:52:20.392Z,34.93
2018-02-27T07:54:52.865Z,36.37
2018-02-27T07:57:20.372Z,39.90
2018-02-27T07:59:47.892Z,34.73
2018-02-27T08:02:15.402Z,30.83
2018-02-27T08:04:43.096Z,33.03
2018-02-27T08:07:10.580Z,34.60
2018-02-27T08:09:38.080Z,29.43
2018-02-27T08:12:05.541Z,34.77
2018-02-27T08:14:33.307Z,32.97
2018-02-27T08:17:00.887Z,30.23
2018-02-27T08:19:28.364Z,36.53
2018-02-27T08:21:55.967Z,31.73
2018-02-27T08:24:23.440Z,29.47
2018-02-27T08:26:51.105Z,27.03
2018-02-27T08:29:18.646Z,29.23
2018-02-27T08:31:46.135Z,25.17
2018-02-27T08:34:18.593Z,30.27
2018-02-27T08:36:46.120Z,24.63
2018-02-27T08:39:13.667Z,27.70
2018-02-27T08:41:41.131Z,28.13
2018-02-27T08:44:08.635Z,27.03
2018-02-27T08:46:36.196Z,27.07
2018-02-27T08:49:03.709Z,25.90
2018-02-27T08:51:31.172Z,29.43
2018-02-27T08:53:58.775Z,26.57
2018-02-27T08:56:26.275Z,23.53
2018-02-27T08:58:53.854Z,18.60
2018-02-27T09:01:21.350Z,22.67
2018-02-27T09:03:49.181Z,21.77
2018-02-27T09:06:16.835Z,20.57
2018-02-27T09:08:44.316Z,22.73
2018-02-27T09:11:11.917Z,21.87
2018-02-27T09:13:39.463Z,18.30
2018-02-27T09:16:07.077Z,17.63
2018-02-27T09:18:34.574Z,17.63
2018-02-27T09:21:02.075Z,17.27
2018-02-27T09:23:29.541Z,17.00
2018-02-27T09:25:57.961Z,18.90
2018-02-27T09:28:25.448Z,14.07
2018-02-27T09:30:53.037Z,13.80
2018-02-27T09:33:20.538Z,13.73
2018-02-27T09:35:48.176Z,11.83
2018-02-27T09:38:15.680Z,14.17
2018-02-27T09:43:25.257Z,16.03
2018-02-27T09:45:52.737Z,12.50
2018-02-27T09:48:20.227Z,14.93
2018-02-27T09:50:47.662Z,12.17
2018-02-27T09:53:16.298Z,11.07
2018-02-27T09:55:43.814Z,11.87
2018-02-27T09:58:11.283Z,12.90
2018-02-27T10:00:40.027Z,15.43
2018-02-27T10:03:07.529Z,14.20
2018-02-27T10:05:34.996Z,17.23
2018-02-27T10:08:02.539Z,13.15
2018-02-27T10:10:30.148Z,12.35
2018-02-27T10:12:57.706Z,12.07
2018-02-27T10:15:25.195Z,12.35
2018-02-27T10:17:52.707Z,11.70
2018-02-27T10:20:20.181Z,11.57
2018-02-27T10:22:47.632Z,11.77
2018-02-27T10:25:15.084Z,12.00
2018-02-27T10:27:42.636Z,10.70
2018-02-27T10:30:10.191Z,10.25
2018-02-27T10:32:37.706Z,9.85
2018-02-27T10:35:05.239Z,9.90
2018-02-27T10:37:32.767Z,10.20
2018-02-27T10:40:00.278Z,10.63
2018-02-27T10:42:27.718Z,11.47
2018-02-27T10:44:55.184Z,9.33
2018-02-27T10:47:24.008Z,11.27
2018-02-27T10:49:53.151Z,9.23
2018-02-27T10:52:20.623Z,10.30
2018-02-27T10:54:53.116Z,11.03
2018-02-27T10:57:20.611Z,9.87
2018-02-27T10:59:48.054Z,12.87
2018-02-27T11:02:15.570Z,11.47
2018-02-27T11:04:43.072Z,11.23
2018-02-27T11:07:10.534Z,10.40
2018-02-27T11:09:38.022Z,11.27
2018-02-27T11:12:05.599Z,12.03
2018-02-27T11:14:33.152Z,12.63
2018-02-27T11:17:00.733Z,10.63
2018-02-27T11:19:28.203Z,11.13
2018-02-27T11:21:55.668Z,9.50
2018-02-27T11:24:23.264Z,12.27
2018-02-27T11:26:50.746Z,9.80
2018-02-27T11:29:18.248Z,10.70
2018-02-27T11:31:45.811Z,10.83
2018-02-27T11:34:13.295Z,11.93
2018-02-27T11:36:40.796Z,11.93
2018-02-27T11:39:09.802Z,9.00
2018-02-27T11:41:37.276Z,10.83
2018-02-27T11:44:04.760Z,10.70
2018-02-27T11:46:32.224Z,10.60
2018-02-27T11:48:59.775Z,11.67
2018-02-27T11:51:27.262Z,10.50
2018-02-27T11:53:54.952Z,10.77
2018-02-27T11:56:22.523Z,10.40
2018-02-27T11:58:50.085Z,14.83
2018-02-27T12:01:17.540Z,11.50
2018-02-27T12:03:45.344Z,13.60
2018-02-27T12:06:12.937Z,13.10
2018-02-27T12:08:40.474Z,14.00
2018-02-27T12:11:08.132Z,10.40
2018-02-27T12:13:35.587Z,12.20
2018-02-27T12:16:03.114Z,9.40
2018-02-27T12:18:30.698Z,12.07
2018-02-27T12:20:58.179Z,10.03
2018-02-27T12:23:25.854Z,10.80
2018-02-27T12:25:54.330Z,10.90
2018-02-27T12:28:21.842Z,12.03
2018-02-27T12:30:49.434Z,9.73
2018-02-27T12:33:16.994Z,11.27
2018-02-27T12:35:44.500Z,8.77
2018-02-27T12:38:11.978Z,11.57
2018-02-27T12:40:39.481Z,12.77
2018-02-27T12:43:06.968Z,10.70
2018-02-27T12:45:34.486Z,10.97
2018-02-27T12:48:01.966Z,12.10
2018-02-27T12:50:30.029Z,10.20
2018-02-27T12:52:57.530Z,10.47
2018-02-27T12:55:25.230Z,10.33
2018-02-27T12:57:52.715Z,9.53
2018-02-27T13:00:20.258Z,9.60
2018-02-27T13:02:48.511Z,8.40
2018-02-27T13:05:16.035Z,9.53
2018-02-27T13:07:43.694Z,10.23
2018-02-27T13:10:11.189Z,12.97
2018-02-27T13:12:38.759Z,13.17
2018-02-27T13:15:06.242Z,7.97
2018-02-27T13:17:33.757Z,8.40
2018-02-27T13:20:01.244Z,8.03
2018-02-27T13:22:28.702Z,8.83
2018-02-27T13:24:56.174Z,10.07
2018-02-27T13:27:23.876Z,9.33
2018-02-27T13:29:51.540Z,8.70
2018-02-27T13:32:19.100Z,12.10
2018-02-27T13:34:46.598Z,8.20
2018-02-27T13:37:14.115Z,8.23
2018-02-27T13:39:41.646Z,8.73
2018-02-27T13:42:09.172Z,9.13
2018-02-27T13:44:36.662Z,7.77
2018-02-27T13:47:04.576Z,8.07
2018-02-27T13:49:32.092Z,9.17
2018-02-27T13:51:59.795Z,9.67
2018-02-27T13:54:27.369Z,7.93
2018-02-27T13:56:54.882Z,9.03
2018-02-27T13:59:22.430Z,8.50
2018-02-27T14:01:50.010Z,7.90
2018-02-27T14:04:17.464Z,8.67
2018-02-27T14:06:45.032Z,10.50
2018-02-27T14:09:12.483Z,8.90
2018-02-27T14:11:39.977Z,10.43
2018-02-27T14:14:07.441Z,8.47
2018-02-27T14:16:35.048Z,8.57
2018-02-27T14:19:02.519Z,9.13
2018-02-27T14:21:30.217Z,10.27
2018-02-27T14:23:57.789Z,8.17
2018-02-27T14:29:07.078Z,9.80
2018-02-27T14:31:34.656Z,10.53
2018-02-27T14:34:02.162Z,8.87
2018-02-27T14:36:29.670Z,8.90
2018-02-27T14:38:57.166Z,9.20
2018-02-27T14:41:24.694Z,9.83
2018-02-27T14:43:52.346Z,8.43
2018-02-27T14:46:19.918Z,8.53
2018-02-27T14:48:47.441Z,13.30
2018-02-27T14:51:15.082Z,7.67
2018-02-27T14:53:42.575Z,7.13
2018-02-27T14:56:10.118Z,8.50
2018-02-27T14:58:37.580Z,7.87
2018-02-27T15:01:05.567Z,7.80
2018-02-27T15:03:38.060Z,10.17
2018-02-27T15:06:05.708Z,8.63
2018-02-27T15:08:33.150Z,8.87
2018-02-27T15:11:00.990Z,8.10
2018-02-27T15:13:28.554Z,8.37
2018-02-27T15:15:56.049Z,8.57
2018-02-27T15:18:23.574Z,7.60
2018-02-27T15:20:51.076Z,9.80
2018-02-27T15:23:18.581Z,7.47
2018-02-27T15:25:46.235Z,13.17
2018-02-27T15:28:13.802Z,11.67
2018-02-27T15:30:41.400Z,12.93
2018-02-27T15:33:08.870Z,11.07
2018-02-27T15:35:36.415Z,10.77
2018-02-27T15:38:03.899Z,9.17
2018-02-27T15:40:31.380Z,11.57
2018-02-27T15:42:58.922Z,9.43
2018-02-27T15:45:26.446Z,10.07
2018-02-27T15:47:53.938Z,8.70
2018-02-27T15:50:21.451Z,12.07
2018-02-27T15:52:48.997Z,10.53
2018-02-27T15:55:16.670Z,12.23
2018-02-27T15:57:44.394Z,13.80
2018-02-27T16:00:11.903Z,15.37
2018-02-27T16:02:39.406Z,9.40
2018-02-27T16:05:07.064Z,13.40
2018-02-27T16:07:34.576Z,11.90
2018-02-27T16:10:02.132Z,8.63
2018-02-27T16:12:29.699Z,11.43
2018-02-27T16:14:57.290Z,10.03
2018-02-27T16:17:24.794Z,9.27
2018-02-27T16:19:52.384Z,11.63
2018-02-27T16:22:20.758Z,11.83
2018-02-27T16:24:48.259Z,12.80
2018-02-27T16:27:15.781Z,15.90
2018-02-27T16:29:43.275Z,14.07
2018-02-27T16:32:11.096Z,13.37
2018-02-27T16:34:38.650Z,11.13
2018-02-27T16:37:06.240Z,12.07
2018-02-27T16:39:33.865Z,10.20
2018-02-27T16:42:01.384Z,12.30
2018-02-27T16:44:28.885Z,14.00
2018-02-27T16:46:56.682Z,13.83
2018-02-27T16:49:24.209Z,13.17
2018-02-27T16:51:51.731Z,11.70
2018-02-27T16:54:19.233Z,10.83
2018-02-27T16:56:46.767Z,12.73
2018-02-27T16:59:14.358Z,12.67
2018-02-27T17:01:41.842Z,11.70
2018-02-27T17:04:09.382Z,11.47
2018-02-27T17:06:36.849Z,12.87
2018-02-27T17:09:04.381Z,15.47
2018-02-27T17:11:31.898Z,13.40
2018-02-27T17:13:59.427Z,13.90
2018-02-27T17:16:27.000Z,12.00
2018-02-27T17:18:54.499Z,9.53
2018-02-27T17:21:21.976Z,12.60
2018-02-27T17:23:49.521Z,16.83
2018-02-27T17:26:17.020Z,11.23
2018-02-27T17:28:44.518Z,10.73
2018-02-27T17:31:12.066Z,13.67
2018-02-27T17:33:39.624Z,13.80
2018-02-27T17:36:07.200Z,16.13
2018-02-27T17:38:34.726Z,15.07
2018-02-27T17:41:02.272Z,13.63
2018-02-27T17:43:29.874Z,14.40
2018-02-27T17:45:58.034Z,12.17
2018-02-27T17:48:25.558Z,12.87
2018-02-27T17:50:53.036Z,15.23
2018-02-27T17:53:20.536Z,13.30
2018-02-27T17:55:48.082Z,16.83
2018-02-27T17:58:15.853Z,13.63
2018-02-27T18:00:43.395Z,13.83
2018-02-27T18:03:10.943Z,24.23
2018-02-27T18:05:38.499Z,15.10
2018-02-27T18:08:05.990Z,14.43
2018-02-27T18:10:33.459Z,13.50
2018-02-27T18:13:01.044Z,15.63
2018-02-27T18:15:28.588Z,13.47
2018-02-27T18:17:56.119Z,14.00
2018-02-27T18:20:23.592Z,14.23
2018-02-27T18:22:51.169Z,16.50
2018-02-27T18:25:18.669Z,15.90
2018-02-27T18:27:46.218Z,14.70
2018-02-27T18:30:15.352Z,16.30
2018-02-27T18:32:43.320Z,15.53
2018-02-27T18:35:11.498Z,16.27
2018-02-27T18:37:39.160Z,15.03
2018-02-27T18:40:06.881Z,16.73
2018-02-27T18:42:34.576Z,17.67
2018-02-27T18:45:02.129Z,16.87
2018-02-27T18:47:29.622Z,18.17
2018-02-27T18:49:57.133Z,16.20
2018-02-27T18:52:24.632Z,14.77
2018-02-27T18:54:52.169Z,16.00
2018-02-27T18:57:19.713Z,20.33
2018-02-27T18:59:47.215Z,16.17
2018-02-27T19:02:14.805Z,18.63
2018-02-27T19:04:42.521Z,20.60
2018-02-27T19:07:10.030Z,18.77
2018-02-27T19:09:37.681Z,16.50
2018-02-27T19:12:05.218Z,18.73
2018-02-27T19:14:32.755Z,20.33
2018-02-27T19:17:00.293Z,19.17
2018-02-27T19:19:27.766Z,20.57
2018-02-27T19:21:55.249Z,16.00
2018-02-27T19:24:22.731Z,17.33
2018-02-27T19:26:50.239Z,19.87
2018-02-27T19:29:17.738Z,22.40
2018-02-27T19:31:45.256Z,20.27
2018-02-27T19:34:12.837Z,19.97
2018-02-27T19:36:40.362Z,24.53
2018-02-27T19:39:07.932Z,20.23
2018-02-27T19:41:35.402Z,21.83
2018-02-27T19:44:02.970Z,17.57
2018-02-27T19:46:30.460Z,20.30
2018-02-27T19:48:58.062Z,22.33
2018-02-27T19:51:25.578Z,18.77
2018-02-27T19:53:53.064Z,22.70
2018-02-27T19:56:20.692Z,19.63
2018-02-27T19:58:48.186Z,22.57
2018-02-27T20:01:15.776Z,20.97
2018-02-27T20:03:43.325Z,25.93
2018-02-27T20:06:10.970Z,24.07
2018-02-27T20:08:38.535Z,22.03
2018-02-27T20:11:06.029Z,26.27
2018-02-27T20:13:33.510Z,21.93
2018-02-27T20:16:01.092Z,25.47
2018-02-27T20:18:28.735Z,25.53
2018-02-27T20:20:56.283Z,30.47
2018-02-27T20:23:29.435Z,21.53
2018-02-27T20:25:56.917Z,20.50
2018-02-27T20:28:29.914Z,23.03
2018-02-27T20:30:57.522Z,30.20
2018-02-27T20:33:25.041Z,24.37
2018-02-27T20:35:52.567Z,35.27
2018-02-27T20:41:19.065Z,31.27
2018-02-27T20:43:47.161Z,24.67
2018-02-27T20:46:14.670Z,30.17
2018-02-27T20:48:42.197Z,24.57
2018-02-27T20:51:09.719Z,29.67
2018-02-27T20:53:42.305Z,23.60
2018-02-27T20:56:09.881Z,29.80
2018-02-27T20:58:37.363Z,21.00
2018-02-27T21:01:04.879Z,32.67
2018-02-27T21:03:32.420Z,24.27
2018-02-27T21:05:59.909Z,24.87
2018-02-27T21:08:27.408Z,20.30
2018-02-27T21:10:54.880Z,27.07
2018-02-27T21:13:22.495Z,22.73
2018-02-27T21:15:51.045Z,30.60
2018-02-27T21:18:18.553Z,26.37
2018-02-27T21:20:46.061Z,33.63
2018-02-27T21:23:13.528Z,26.10
2018-02-27T21:25:41.031Z,31.13
2018-02-27T21:28:08.511Z,26.73
2018-02-27T21:30:36.018Z,34.73
2018-02-27T21:33:03.586Z,24.37
2018-02-27T21:35:31.073Z,30.73
2018-02-27T21:37:58.633Z,26.50
2018-02-27T21:40:26.179Z,27.30
2018-02-27T21:42:53.732Z,20.57
2018-02-27T21:45:21.377Z,36.77
2018-02-27T21:47:48.879Z,23.20
2018-02-27T21:50:16.393Z,27.33
2018-02-27T21:52:43.881Z,24.60
2018-02-27T21:55:11.409Z,29.10
2018-02-27T21:57:38.902Z,25.43
2018-02-27T22:00:06.435Z,28.43
2018-02-27T22:02:34.691Z,30.90
2018-02-27T22:05:02.256Z,29.17
2018-02-27T22:07:30.052Z,31.33
2018-02-27T22:09:57.561Z,27.03
2018-02-27T22:12:25.120Z,32.20
2018-02-27T22:14:52.928Z,25.70
2018-02-27T22:17:20.465Z,32.30
2018-02-27T22:19:47.998Z,29.87
2018-02-27T22:22:15.499Z,29.33
2018-02-27T22:24:43.073Z,29.00
2018-02-27T22:27:10.533Z,27.93
2018-02-27T22:29:38.049Z,24.73
2018-02-27T22:32:05.582Z,25.73
2018-02-27T22:34:33.028Z,29.13
2018-02-27T22:37:00.620Z,29.83
2018-02-27T22:39:28.126Z,31.63
2018-02-27T22:41:55.717Z,26.23
2018-02-27T22:44:23.272Z,28.77
2018-02-27T22:46:50.788Z,28.70
2018-02-27T22:49:18.282Z,30.03
2018-02-27T22:51:45.834Z,28.10
2018-02-27T22:54:13.318Z,27.90
2018-02-27T22:56:40.788Z,27.47
2018-02-27T22:59:10.522Z,28.50
2018-02-27T23:01:38.324Z,25.53
2018-02-27T23:04:05.837Z,27.33
2018-02-27T23:06:33.338Z,29.07
2018-02-27T23:09:00.803Z,27.03
2018-02-27T23:11:28.319Z,25.87
2018-02-27T23:13:55.844Z,32.00
2018-02-27T23:16:23.338Z,25.97
2018-02-27T23:18:50.845Z,30.77
2018-02-27T23:21:18.368Z,31.53
2018-02-27T23:23:47.536Z,31.30
2018-02-27T23:26:27.360Z,29.70
2018-02-27T23:28:55.452Z,30.53
2018-02-27T23:31:23.014Z,29.47
2018-02-27T23:34:04.986Z,30.53
2018-02-27T23:36:32.497Z,28.27
2018-02-27T23:39:00.031Z,31.60
2018-02-27T23:41:27.537Z,27.60
2018-02-27T23:43:54.991Z,32.87
2018-02-27T23:46:22.452Z,27.90
2018-02-27T23:48:49.916Z,27.80
2018-02-27T23:51:17.518Z,24.80
2018-02-27T23:53:49.989Z,29.13
2018-02-27T23:56:17.446Z,27.77
2018-02-27T23:58:44.904Z,27.73
